Ana Sayfa
METAR-TAF:

METAR-TAF

Havaalanları :

Wadesboro, Kuzey Carolina, Amerika Birleşik Devletleri

Enlem: 35-01-14N, Boylam: 080-04-38W, yükseklik: 91 m

Güncel hava durumu gözlemi

Rapor saat 01:55 UTC de 13 dakika önce yapıldı.
Sakin rüzgar
Sıcaklık 19°C
Nem 94%
Basınç 1014 hPa
Görüş mesafesi: 16.1 km
Açık gökyüzü

METAR: KAFP 240155Z AUTO 00000KT 10SM CLR 19/18 A2995 RMK AO2 P0001 T01900175

Saat: 22:08 (02:08 UTC)


TAF: eksik

4.000'den fazla havaalanı için hava durumu gözlemleri ve tahminleri (METAR ve TAF raporları).

Kullanılabilir istasyonlar harita üzerinde sarı ve kırmızı noktalarla gösterilir.

İstasyonun adını görmek için fareyi noktanın üzerinde gezdirin.

Sonrasında hava gözlem ve tahminlerini görmek için tıklayın.

Haritayı değiştirmek için: yaklaştırmak için siyah artı işaretli yeşil düğmeye ve uzaklaştırmak için de eksi işaretli düğmeye hızla tıklayın; bitişik haritalar için yeşil okları kullanın.


METAR-TAF: